Time;durP1;ratioP1;P1;durP2;ratioP2;P2;SDS_P1;SDS_P2;PMS_P1;PMS_P2;Temp;Humidity;BMP_temperature;BMP_pressure;BME280_temperature;BME280_humidity;BME280_pressure;Samples;Min_cycle;Max_cycle;Signal;HPM_P1;HPM_P2
2023/11/05 00:00:34;;;;;;;;;;;9.50;90.30;;;;;;5132023;27;19912;-73
2023/11/05 00:02:59;;;;;;;;;;;9.50;90.30;;;;;;5131850;27;19919;-73
2023/11/05 00:05:25;;;;;;;;;;;9.50;90.30;;;;;;5096264;27;20476;-72
2023/11/05 00:07:50;;;;;;;;;;;9.50;90.30;;;;;;5131520;27;19923;-73
2023/11/05 00:10:16;;;;;;;;;;;9.50;90.30;;;;;;5132154;27;19915;-72
2023/11/05 00:12:41;;;;;;;;;;;9.50;90.30;;;;;;5131704;27;20060;-73
2023/11/05 00:15:08;;;;;;;;;;;9.50;90.30;;;;;;5113181;27;19962;-72
2023/11/05 00:17:33;;;;;;;;;;;9.50;90.30;;;;;;5131444;27;20019;-73
2023/11/05 00:20:00;;;;;;;;;;;9.50;90.40;;;;;;5131586;27;19964;-73
2023/11/05 00:22:25;;;;;;;;;;;9.50;90.40;;;;;;5131566;27;19908;-72
2023/11/05 00:24:51;;;;;;;;;;;9.60;90.40;;;;;;5131607;27;19918;-73
2023/11/05 00:27:16;;;;;;;;;;;9.60;90.40;;;;;;5131430;27;19919;-73
2023/11/05 00:29:42;;;;;;;;;;;9.60;90.40;;;;;;5131735;27;19915;-73
2023/11/05 00:32:08;;;;;;;;;;;9.60;90.30;;;;;;5131447;27;19964;-73
2023/11/05 00:34:34;;;;;;;;;;;9.60;90.30;;;;;;5112842;27;19958;-73
2023/11/05 00:37:00;;;;;;;;;;;9.60;90.30;;;;;;5112819;27;20373;-73
2023/11/05 00:39:25;;;;;;;;;;;9.50;90.30;;;;;;5131218;27;19966;-73
2023/11/05 00:41:51;;;;;;;;;;;9.50;90.30;;;;;;5130766;27;19911;-73
2023/11/05 00:44:16;;;;;;;;;;;9.50;90.30;;;;;;5130950;27;19965;-73
2023/11/05 00:46:42;;;;;;;;;;;9.50;90.30;;;;;;5130762;27;19919;-73
2023/11/05 00:49:09;;;;;;;;;;;9.40;90.30;;;;;;5130613;27;19999;-72
2023/11/05 00:51:34;;;;;;;;;;;9.40;90.30;;;;;;5130850;27;20013;-72
2023/11/05 00:54:00;;;;;;;;;;;9.40;90.30;;;;;;5130802;27;19911;-72
2023/11/05 00:56:26;;;;;;;;;;;9.40;90.30;;;;;;5130630;27;19937;-72
2023/11/05 00:58:52;;;;;;;;;;;9.40;90.30;;;;;;5130810;27;20355;-72
2023/11/05 01:01:17;;;;;;;;;;;9.40;90.30;;;;;;5130602;27;19919;-72
2023/11/05 01:03:43;;;;;;;;;;;9.40;90.30;;;;;;5130569;27;19918;-72
2023/11/05 01:06:08;;;;;;;;;;;9.40;90.30;;;;;;5111801;27;19990;-72
2023/11/05 01:08:34;;;;;;;;;;;9.30;90.30;;;;;;5111989;27;19912;-71
2023/11/05 01:10:59;;;;;;;;;;;9.30;90.30;;;;;;5130165;27;20421;-72
2023/11/05 01:13:26;;;;;;;;;;;9.30;90.30;;;;;;5130369;27;20001;-72
2023/11/05 01:15:51;;;;;;;;;;;9.30;90.30;;;;;;5130389;27;19916;-72
2023/11/05 01:18:17;;;;;;;;;;;9.30;90.30;;;;;;5130259;27;19912;-71
2023/11/05 01:20:43;;;;;;;;;;;9.30;90.20;;;;;;5111882;27;19959;-72
2023/11/05 01:23:09;;;;;;;;;;;9.20;90.20;;;;;;5130242;27;19965;-72
2023/11/05 01:25:34;;;;;;;;;;;9.10;90.10;;;;;;5111793;27;19915;-72
2023/11/05 01:28:00;;;;;;;;;;;9.00;90.10;;;;;;5130142;27;19916;-73
2023/11/05 01:30:26;;;;;;;;;;;8.90;90.10;;;;;;5130260;27;19920;-73
2023/11/05 01:32:51;;;;;;;;;;;8.80;90.10;;;;;;5130141;27;19934;-72
2023/11/05 01:35:17;;;;;;;;;;;8.80;90.20;;;;;;5111792;27;19948;-72
2023/11/05 01:37:43;;;;;;;;;;;8.80;90.20;;;;;;5130063;27;19907;-72
2023/11/05 01:40:08;;;;;;;;;;;8.80;90.30;;;;;;5130002;27;19968;-72
2023/11/05 01:42:34;;;;;;;;;;;8.70;90.20;;;;;;5111491;27;20351;-72
2023/11/05 01:45:00;;;;;;;;;;;8.70;90.20;;;;;;5130029;27;19915;-71
2023/11/05 01:47:25;;;;;;;;;;;8.70;90.20;;;;;;5129460;27;19915;-72
2023/11/05 01:49:51;;;;;;;;;;;8.60;90.10;;;;;;5111379;27;19912;-72
2023/11/05 01:52:18;;;;;;;;;;;8.60;90.20;;;;;;5129729;27;19915;-72
2023/11/05 01:54:43;;;;;;;;;;;8.60;90.20;;;;;;5129767;27;19907;-71
2023/11/05 01:57:09;;;;;;;;;;;8.50;90.10;;;;;;5129759;27;19934;-72
2023/11/05 01:59:35;;;;;;;;;;;8.40;90.10;;;;;;5129699;27;19907;-72
2023/11/05 02:02:01;;;;;;;;;;;8.30;90.10;;;;;;5111345;27;19915;-72
2023/11/05 02:04:30;;;;;;;;;;;8.20;90.10;;;;;;5129851;27;19942;-72
2023/11/05 02:06:55;;;;;;;;;;;8.20;90.10;;;;;;5129379;27;19919;-72
2023/11/05 02:09:21;;;;;;;;;;;8.10;90.10;;;;;;5111195;27;19916;-72
2023/11/05 02:11:50;;;;;;;;;;;8.00;90.10;;;;;;5129320;27;20049;-72
2023/11/05 02:14:15;;;;;;;;;;;8.00;90.10;;;;;;5111254;27;20010;-72
2023/11/05 02:16:41;;;;;;;;;;;8.00;90.10;;;;;;5129271;27;19996;-72
2023/11/05 02:19:07;;;;;;;;;;;7.90;90.10;;;;;;5129498;27;19911;-72
2023/11/05 02:21:52;;;;;;;;;;;7.80;90.10;;;;;;5129126;27;20317;-71
2023/11/05 02:24:17;;;;;;;;;;;7.80;90.10;;;;;;5129278;27;19907;-72
2023/11/05 02:26:53;;;;;;;;;;;7.80;90.10;;;;;;5129176;27;20324;-72
2023/11/05 02:29:19;;;;;;;;;;;7.70;90.10;;;;;;5130056;27;19907;-72
2023/11/05 02:31:44;;;;;;;;;;;7.70;90.10;;;;;;5129141;27;19916;-71
2023/11/05 02:34:10;;;;;;;;;;;7.70;90.10;;;;;;5129216;27;20010;-72
2023/11/05 02:36:36;;;;;;;;;;;7.70;90.10;;;;;;5129171;27;20301;-72
2023/11/05 02:39:01;;;;;;;;;;;7.70;90.10;;;;;;5129174;27;19955;-72
2023/11/05 02:41:27;;;;;;;;;;;7.70;90.10;;;;;;5128913;27;19956;-72
2023/11/05 02:43:52;;;;;;;;;;;7.70;90.10;;;;;;5110575;27;19933;-72
2023/11/05 02:46:18;;;;;;;;;;;7.70;90.00;;;;;;5128949;27;20315;-72
2023/11/05 02:48:43;;;;;;;;;;;7.70;90.00;;;;;;5129013;27;19918;-72
2023/11/05 02:51:10;;;;;;;;;;;7.60;90.00;;;;;;5110406;27;19912;-71
2023/11/05 02:53:35;;;;;;;;;;;7.60;90.00;;;;;;5110493;28;19907;-71
2023/11/05 02:56:02;;;;;;;;;;;7.60;90.10;;;;;;5128804;28;19935;-72
2023/11/05 02:58:28;;;;;;;;;;;7.60;90.10;;;;;;5128842;28;20468;-72
2023/11/05 03:00:54;;;;;;;;;;;7.50;90.10;;;;;;5096144;27;20010;-72
2023/11/05 03:03:19;;;;;;;;;;;7.50;90.10;;;;;;5133163;27;20409;-71
2023/11/05 03:05:45;;;;;;;;;;;7.50;90.00;;;;;;5133274;27;19919;-71
2023/11/05 03:08:11;;;;;;;;;;;7.40;90.00;;;;;;5133186;27;19925;-72
2023/11/05 03:10:37;;;;;;;;;;;7.40;90.10;;;;;;5114448;27;19923;-72
2023/11/05 03:13:03;;;;;;;;;;;7.50;90.20;;;;;;5132742;27;20271;-72
2023/11/05 03:15:29;;;;;;;;;;;7.50;90.20;;;;;;5132904;27;19920;-71
2023/11/05 03:17:54;;;;;;;;;;;7.60;90.20;;;;;;5132907;27;19912;-72
2023/11/05 03:20:20;;;;;;;;;;;7.60;90.20;;;;;;5114381;27;19976;-72
2023/11/05 03:22:46;;;;;;;;;;;7.70;90.50;;;;;;5132827;27;20256;-72
2023/11/05 03:25:11;;;;;;;;;;;7.70;90.20;;;;;;5132823;27;19973;-72
2023/11/05 03:27:38;;;;;;;;;;;7.80;90.20;;;;;;5132540;27;20006;-71
2023/11/05 03:30:04;;;;;;;;;;;7.80;90.20;;;;;;5132662;27;19922;-72
2023/11/05 03:32:30;;;;;;;;;;;7.80;90.20;;;;;;5132507;27;19924;-72
2023/11/05 03:34:56;;;;;;;;;;;7.80;90.20;;;;;;5132696;27;19911;-73
2023/11/05 03:37:21;;;;;;;;;;;7.90;90.20;;;;;;5114159;27;19915;-72
2023/11/05 03:39:48;;;;;;;;;;;7.90;90.20;;;;;;5132615;27;20005;-72
2023/11/05 03:42:14;;;;;;;;;;;7.90;90.20;;;;;;5132367;27;19911;-73
2023/11/05 03:44:40;;;;;;;;;;;7.90;90.30;;;;;;5132380;27;19923;-73
2023/11/05 03:47:05;;;;;;;;;;;8.00;90.30;;;;;;5132284;27;19911;-72
2023/11/05 03:49:31;;;;;;;;;;;8.00;90.30;;;;;;5132325;27;19912;-73
2023/11/05 03:51:58;;;;;;;;;;;8.10;90.30;;;;;;5113752;27;20362;-72
2023/11/05 03:54:24;;;;;;;;;;;8.10;90.20;;;;;;5132179;27;20002;-73
2023/11/05 03:56:49;;;;;;;;;;;8.10;90.20;;;;;;5113564;27;20432;-73
2023/11/05 03:59:15;;;;;;;;;;;8.20;90.20;;;;;;5132069;27;19926;-72
2023/11/05 04:01:41;;;;;;;;;;;8.20;90.20;;;;;;5132143;27;19915;-72
2023/11/05 04:04:09;;;;;;;;;;;8.30;90.20;;;;;;5131618;27;20359;-72
2023/11/05 04:06:35;;;;;;;;;;;8.30;90.20;;;;;;5131809;27;19972;-73
2023/11/05 04:09:01;;;;;;;;;;;8.30;90.20;;;;;;5113666;27;19919;-72
2023/11/05 04:11:27;;;;;;;;;;;8.40;90.20;;;;;;5131280;27;19947;-73
2023/11/05 04:13:52;;;;;;;;;;;8.40;90.20;;;;;;5131767;27;19998;-72
2023/11/05 04:16:18;;;;;;;;;;;8.40;90.20;;;;;;5131994;27;19943;-73
2023/11/05 04:18:44;;;;;;;;;;;8.40;90.20;;;;;;5131833;27;20331;-73
2023/11/05 04:21:09;;;;;;;;;;;8.40;90.20;;;;;;5131599;27;19912;-73
2023/11/05 04:23:35;;;;;;;;;;;8.40;90.10;;;;;;5131728;27;19912;-73
2023/11/05 04:26:00;;;;;;;;;;;8.50;90.20;;;;;;5131367;27;20463;-72
2023/11/05 04:28:26;;;;;;;;;;;8.50;90.20;;;;;;5131451;27;20377;-73
2023/11/05 04:30:52;;;;;;;;;;;8.50;90.20;;;;;;5131422;27;19940;-73
2023/11/05 04:33:17;;;;;;;;;;;8.50;90.20;;;;;;5131429;27;19961;-73
2023/11/05 04:35:43;;;;;;;;;;;8.60;90.20;;;;;;5131391;27;20378;-73
2023/11/05 04:38:08;;;;;;;;;;;8.60;90.20;;;;;;5131309;27;20395;-73
2023/11/05 04:40:34;;;;;;;;;;;8.60;90.20;;;;;;5131268;27;19911;-73
2023/11/05 04:42:59;;;;;;;;;;;8.60;90.20;;;;;;5112653;27;19915;-72
2023/11/05 04:45:25;;;;;;;;;;;8.60;90.20;;;;;;5131359;27;20072;-72
2023/11/05 04:47:51;;;;;;;;;;;8.70;90.20;;;;;;5131221;27;19930;-72
2023/11/05 04:50:16;;;;;;;;;;;8.70;90.20;;;;;;5112811;27;19922;-73
2023/11/05 04:52:42;;;;;;;;;;;8.70;90.20;;;;;;5131070;27;19915;-73
2023/11/05 04:55:07;;;;;;;;;;;8.70;90.20;;;;;;5131060;27;20433;-71
2023/11/05 04:57:33;;;;;;;;;;;8.70;90.20;;;;;;5130907;27;19907;-72
2023/11/05 04:59:59;;;;;;;;;;;8.80;90.20;;;;;;5130889;27;19990;-72
2023/11/05 05:02:24;;;;;;;;;;;8.80;90.20;;;;;;5130989;27;20364;-73
2023/11/05 05:04:51;;;;;;;;;;;8.80;90.20;;;;;;5130895;27;19919;-73
2023/11/05 05:07:17;;;;;;;;;;;8.80;90.20;;;;;;5130615;27;19976;-73
2023/11/05 05:09:42;;;;;;;;;;;8.80;90.20;;;;;;5130668;27;19911;-73
2023/11/05 05:12:08;;;;;;;;;;;8.80;90.20;;;;;;5130605;27;19915;-73
2023/11/05 05:14:34;;;;;;;;;;;8.80;90.20;;;;;;5112339;27;20351;-73
2023/11/05 05:17:00;;;;;;;;;;;8.80;90.20;;;;;;5130801;27;19912;-73
2023/11/05 05:19:25;;;;;;;;;;;8.80;90.20;;;;;;5095291;27;19951;-72
2023/11/05 05:21:51;;;;;;;;;;;8.80;90.20;;;;;;5130169;27;20401;-72
2023/11/05 05:24:17;;;;;;;;;;;8.80;90.30;;;;;;5111194;27;19960;-72
2023/11/05 05:26:43;;;;;;;;;;;8.80;90.30;;;;;;5111916;27;19952;-72
2023/11/05 05:29:08;;;;;;;;;;;8.90;90.30;;;;;;5130353;27;19919;-72
2023/11/05 05:31:34;;;;;;;;;;;8.90;90.30;;;;;;5111871;27;20406;-72
2023/11/05 05:34:00;;;;;;;;;;;8.90;90.30;;;;;;5130244;27;19911;-73
2023/11/05 05:36:25;;;;;;;;;;;8.90;90.30;;;;;;5130254;27;19981;-72
2023/11/05 05:38:52;;;;;;;;;;;9.00;90.30;;;;;;5130217;27;19979;-72
2023/11/05 05:41:17;;;;;;;;;;;9.00;90.30;;;;;;5129994;27;19922;-72
2023/11/05 05:43:43;;;;;;;;;;;9.00;90.30;;;;;;5111819;27;19912;-72
2023/11/05 05:46:13;;;;;;;;;;;9.10;90.30;;;;;;5129754;27;19915;-72
2023/11/05 05:48:38;;;;;;;;;;;9.10;90.30;;;;;;5129934;27;20428;-72
2023/11/05 05:51:07;;;;;;;;;;;9.10;90.30;;;;;;5129782;27;19907;-73
2023/11/05 05:53:32;;;;;;;;;;;9.10;90.30;;;;;;5129961;27;19958;-73
2023/11/05 05:55:58;;;;;;;;;;;9.20;90.40;;;;;;5129850;27;20407;-72
2023/11/05 05:58:23;;;;;;;;;;;9.20;90.40;;;;;;5129776;27;19925;-73
2023/11/05 06:00:49;;;;;;;;;;;9.20;90.40;;;;;;5129667;27;20370;-73
2023/11/05 06:03:14;;;;;;;;;;;9.20;90.40;;;;;;5129735;27;19918;-72
2023/11/05 06:05:40;;;;;;;;;;;9.30;90.40;;;;;;5129640;27;19915;-73
2023/11/05 06:08:06;;;;;;;;;;;9.30;90.30;;;;;;5110719;27;19923;-73
2023/11/05 06:10:31;;;;;;;;;;;9.30;90.30;;;;;;5129521;27;19939;-73
2023/11/05 06:12:57;;;;;;;;;;;9.30;90.30;;;;;;5129330;27;19915;-73
2023/11/05 06:15:22;;;;;;;;;;;9.30;90.40;;;;;;5129383;27;20312;-73
2023/11/05 06:17:48;;;;;;;;;;;9.40;90.40;;;;;;5111020;27;19931;-73
2023/11/05 06:20:13;;;;;;;;;;;9.40;90.40;;;;;;5129073;27;19934;-72
2023/11/05 06:22:39;;;;;;;;;;;9.40;90.40;;;;;;5129133;27;19956;-73
2023/11/05 06:25:05;;;;;;;;;;;9.40;90.40;;;;;;5129259;27;19911;-72
2023/11/05 06:27:30;;;;;;;;;;;9.40;90.40;;;;;;5128988;27;19912;-73
2023/11/05 06:29:58;;;;;;;;;;;9.40;90.40;;;;;;5110641;27;19922;-73
2023/11/05 06:32:23;;;;;;;;;;;9.40;90.30;;;;;;5129000;27;19918;-72
2023/11/05 06:34:49;;;;;;;;;;;9.40;90.30;;;;;;5128965;27;19916;-73
2023/11/05 06:37:14;;;;;;;;;;;9.40;90.40;;;;;;5129092;27;19953;-72
2023/11/05 06:39:41;;;;;;;;;;;9.40;90.40;;;;;;5129110;27;20363;-73
2023/11/05 06:42:07;;;;;;;;;;;9.40;90.60;;;;;;5128953;27;19950;-73
2023/11/05 06:44:32;;;;;;;;;;;9.50;90.40;;;;;;5129309;27;20300;-72
2023/11/05 06:46:58;;;;;;;;;;;9.50;90.40;;;;;;5110673;28;19941;-72
2023/11/05 06:49:24;;;;;;;;;;;9.60;90.50;;;;;;5129028;27;20010;-72
2023/11/05 06:51:49;;;;;;;;;;;9.50;90.40;;;;;;5129272;27;19919;-72
2023/11/05 06:54:15;;;;;;;;;;;9.60;90.40;;;;;;5129701;27;19916;-72
2023/11/05 06:56:40;;;;;;;;;;;9.60;90.40;;;;;;5128962;28;19915;-72
2023/11/05 06:59:07;;;;;;;;;;;9.60;90.40;;;;;;5128795;28;19908;-72
2023/11/05 07:01:33;;;;;;;;;;;9.60;90.40;;;;;;5128870;28;19943;-73
2023/11/05 07:03:59;;;;;;;;;;;9.60;90.40;;;;;;5129272;28;20363;-72
2023/11/05 07:06:26;;;;;;;;;;;9.60;90.50;;;;;;5128471;28;19929;-73
2023/11/05 07:08:52;;;;;;;;;;;9.60;90.40;;;;;;5128812;28;19923;-73
2023/11/05 07:11:17;;;;;;;;;;;9.60;90.40;;;;;;5128718;28;19912;-73
2023/11/05 07:13:43;;;;;;;;;;;9.70;90.50;;;;;;5128846;28;20014;-72
2023/11/05 07:16:09;;;;;;;;;;;9.70;90.40;;;;;;5128743;28;19923;-72
2023/11/05 07:18:34;;;;;;;;;;;9.70;90.40;;;;;;5128790;28;20001;-73
2023/11/05 07:21:00;;;;;;;;;;;9.70;90.40;;;;;;5128664;28;19914;-73
2023/11/05 07:23:26;;;;;;;;;;;9.70;90.40;;;;;;5129002;28;20375;-73
2023/11/05 07:25:51;;;;;;;;;;;9.70;90.40;;;;;;5110177;28;19912;-72
2023/11/05 07:28:17;;;;;;;;;;;9.70;90.50;;;;;;5128478;28;20312;-73
2023/11/05 07:30:42;;;;;;;;;;;9.70;90.50;;;;;;5109997;28;20256;-73
2023/11/05 07:33:10;;;;;;;;;;;9.70;90.50;;;;;;5128463;28;19945;-73
2023/11/05 07:35:36;;;;;;;;;;;9.70;90.50;;;;;;5128154;28;19911;-73
2023/11/05 07:38:01;;;;;;;;;;;9.70;90.50;;;;;;5128514;28;20264;-72
2023/11/05 07:40:27;;;;;;;;;;;9.70;90.50;;;;;;5110056;28;19960;-73
2023/11/05 07:42:53;;;;;;;;;;;9.70;90.50;;;;;;5128253;28;20322;-72
2023/11/05 07:45:19;;;;;;;;;;;9.70;90.40;;;;;;5128153;27;19965;-72
2023/11/05 07:47:45;;;;;;;;;;;9.70;90.40;;;;;;5131986;27;19916;-73
2023/11/05 07:50:12;;;;;;;;;;;9.70;90.50;;;;;;5132202;27;19911;-73
2023/11/05 07:52:38;;;;;;;;;;;9.70;90.40;;;;;;5131978;27;19998;-73
2023/11/05 07:55:04;;;;;;;;;;;9.70;90.50;;;;;;5131812;27;20321;-72
2023/11/05 07:57:31;;;;;;;;;;;9.70;90.50;;;;;;5131778;27;19914;-73
2023/11/05 07:59:56;;;;;;;;;;;9.70;90.50;;;;;;5131769;27;19908;-72
2023/11/05 08:02:22;;;;;;;;;;;9.80;90.50;;;;;;5131818;27;20014;-73
2023/11/05 08:04:47;;;;;;;;;;;9.80;90.50;;;;;;5131669;27;19916;-73
2023/11/05 08:07:13;;;;;;;;;;;9.80;90.50;;;;;;5113194;27;19927;-73
2023/11/05 08:09:39;;;;;;;;;;;9.80;90.40;;;;;;5131895;27;19915;-73
2023/11/05 08:12:04;;;;;;;;;;;9.80;90.40;;;;;;5131792;27;19958;-72
2023/11/05 08:14:30;;;;;;;;;;;9.90;90.50;;;;;;5131545;27;19953;-72
2023/11/05 08:16:55;;;;;;;;;;;9.90;90.50;;;;;;5131575;27;19922;-73
2023/11/05 08:19:21;;;;;;;;;;;9.90;90.50;;;;;;5113169;27;20006;-72
2023/11/05 08:21:46;;;;;;;;;;;9.90;90.50;;;;;;5131413;27;19918;-73
2023/11/05 08:24:12;;;;;;;;;;;9.90;90.40;;;;;;5131494;27;19915;-72
2023/11/05 08:26:38;;;;;;;;;;;9.90;90.40;;;;;;5113202;27;19919;-73
2023/11/05 08:29:04;;;;;;;;;;;9.90;90.40;;;;;;5113263;27;19918;-72
2023/11/05 08:31:29;;;;;;;;;;;9.90;90.50;;;;;;5131224;27;19955;-73
2023/11/05 08:33:55;;;;;;;;;;;9.90;90.50;;;;;;5112843;27;19912;-72
2023/11/05 08:36:21;;;;;;;;;;;9.90;90.50;;;;;;5131193;27;20000;-72
2023/11/05 08:38:46;;;;;;;;;;;10.00;90.50;;;;;;5131164;27;19911;-72
2023/11/05 08:41:12;;;;;;;;;;;10.00;90.50;;;;;;5130694;27;19918;-73
2023/11/05 08:43:37;;;;;;;;;;;10.00;90.50;;;;;;5131186;27;19908;-73
2023/11/05 08:46:03;;;;;;;;;;;10.10;90.50;;;;;;5130809;27;19907;-73
2023/11/05 08:48:29;;;;;;;;;;;10.10;90.50;;;;;;5130812;27;19919;-73
2023/11/05 08:50:55;;;;;;;;;;;10.10;90.70;;;;;;5112422;27;20302;-72
2023/11/05 08:53:23;;;;;;;;;;;10.10;90.50;;;;;;5130825;27;20002;-73
2023/11/05 08:55:48;;;;;;;;;;;10.10;90.50;;;;;;5131193;27;20621;-76
2023/11/05 08:58:15;;;;;;;;;;;10.20;90.60;;;;;;5131268;27;19919;-76
2023/11/05 09:00:40;;;;;;;;;;;10.20;90.60;;;;;;5112599;27;19911;-76
2023/11/05 09:03:06;;;;;;;;;;;10.30;90.60;;;;;;5095648;27;19979;-77
2023/11/05 09:05:32;;;;;;;;;;;10.30;90.60;;;;;;5130773;27;19937;-76
2023/11/05 09:07:58;;;;;;;;;;;10.40;90.70;;;;;;5130549;27;19938;-76
2023/11/05 09:10:26;;;;;;;;;;;10.50;90.70;;;;;;5131177;27;20426;-75
2023/11/05 09:12:52;;;;;;;;;;;10.50;90.60;;;;;;5130840;27;20010;-76
2023/11/05 09:15:18;;;;;;;;;;;10.60;90.60;;;;;;5130573;27;20351;-76
2023/11/05 09:17:44;;;;;;;;;;;10.60;90.60;;;;;;5130730;27;19912;-76
2023/11/05 09:20:10;;;;;;;;;;;10.60;90.60;;;;;;5130930;27;19915;-76
2023/11/05 09:22:37;;;;;;;;;;;10.70;90.60;;;;;;5130647;27;20343;-76
2023/11/05 09:25:03;;;;;;;;;;;10.80;90.70;;;;;;5112392;27;19922;-76
2023/11/05 09:27:29;;;;;;;;;;;10.80;90.70;;;;;;5130035;27;19936;-76
2023/11/05 09:29:55;;;;;;;;;;;10.80;90.70;;;;;;5130291;27;19916;-76
2023/11/05 09:32:21;;;;;;;;;;;10.90;90.70;;;;;;5112074;27;20181;-68
2023/11/05 09:34:47;;;;;;;;;;;10.90;90.70;;;;;;5129793;27;20275;-77
2023/11/05 09:37:12;;;;;;;;;;;10.90;90.60;;;;;;5129868;27;19915;-77
2023/11/05 09:39:38;;;;;;;;;;;10.90;90.60;;;;;;5111532;27;19934;-78
2023/11/05 09:42:04;;;;;;;;;;;10.90;90.60;;;;;;5129741;27;19912;-77
2023/11/05 09:44:29;;;;;;;;;;;10.90;90.60;;;;;;5129440;27;20287;-78
2023/11/05 09:46:57;;;;;;;;;;;10.90;90.60;;;;;;5129482;27;19983;-77
2023/11/05 09:49:22;;;;;;;;;;;11.00;90.60;;;;;;5129586;27;20275;-78
2023/11/05 09:51:48;;;;;;;;;;;11.00;90.70;;;;;;5129631;27;19918;-77
2023/11/05 09:54:14;;;;;;;;;;;11.00;90.70;;;;;;5110373;27;20106;-77
2023/11/05 09:56:40;;;;;;;;;;;11.00;90.70;;;;;;5129279;27;19950;-77
2023/11/05 09:59:06;;;;;;;;;;;11.10;90.70;;;;;;5129523;27;20282;-78
2023/11/05 10:01:35;;;;;;;;;;;11.10;90.70;;;;;;5110987;27;19994;-77
2023/11/05 10:04:02;;;;;;;;;;;11.10;90.70;;;;;;5110626;27;20381;-78
2023/11/05 10:06:27;;;;;;;;;;;11.10;90.60;;;;;;5129007;27;19927;-77
2023/11/05 10:08:53;;;;;;;;;;;11.10;90.70;;;;;;5128728;27;20319;-77
2023/11/05 10:11:19;;;;;;;;;;;11.10;90.70;;;;;;5129100;27;19908;-77
2023/11/05 10:13:48;;;;;;;;;;;11.20;90.80;;;;;;5129206;27;19963;-77
2023/11/05 10:16:13;;;;;;;;;;;11.30;90.70;;;;;;5110594;27;19962;-77
2023/11/05 10:18:42;;;;;;;;;;;11.30;90.70;;;;;;5128912;27;19958;-77
2023/11/05 10:21:09;;;;;;;;;;;11.40;90.70;;;;;;5128429;27;19912;-78
2023/11/05 10:23:49;;;;;;;;;;;11.40;90.70;;;;;;5128510;27;19965;-77
2023/11/05 10:26:24;;;;;;;;;;;11.50;90.70;;;;;;5128706;27;19912;-77
2023/11/05 10:28:52;;;;;;;;;;;11.50;90.70;;;;;;5110135;27;20374;-78
2023/11/05 10:31:18;;;;;;;;;;;11.60;90.70;;;;;;5128360;27;19918;-77
2023/11/05 10:33:44;;;;;;;;;;;11.60;90.70;;;;;;5128262;27;19919;-78
2023/11/05 10:36:10;;;;;;;;;;;11.60;90.80;;;;;;5128391;27;20011;-77
2023/11/05 10:38:35;;;;;;;;;;;11.70;90.80;;;;;;5128660;27;19946;-77
2023/11/05 10:41:01;;;;;;;;;;;11.70;90.80;;;;;;5128599;27;19923;-77
2023/11/05 10:43:27;;;;;;;;;;;11.80;90.80;;;;;;5110058;27;19956;-77
2023/11/05 10:45:54;;;;;;;;;;;11.80;90.80;;;;;;5128523;27;19958;-78
2023/11/05 10:48:20;;;;;;;;;;;11.90;90.80;;;;;;5128715;27;19926;-78
2023/11/05 10:50:46;;;;;;;;;;;12.00;90.80;;;;;;5128191;27;19915;-78
2023/11/05 10:53:12;;;;;;;;;;;12.00;90.80;;;;;;5092730;27;19915;-78
2023/11/05 10:55:39;;;;;;;;;;;12.00;90.80;;;;;;5127950;27;19915;-77
2023/11/05 10:58:06;;;;;;;;;;;12.10;90.80;;;;;;5127674;28;19915;-77
2023/11/05 11:00:32;;;;;;;;;;;12.20;90.90;;;;;;5127733;28;20273;-78
2023/11/05 11:03:10;;;;;;;;;;;12.30;90.90;;;;;;5109728;28;19993;-77
2023/11/05 11:05:42;;;;;;;;;;;12.40;90.90;;;;;;5127988;28;19994;-77
2023/11/05 11:08:11;;;;;;;;;;;12.60;91.00;;;;;;5127862;28;20317;-78
2023/11/05 11:10:38;;;;;;;;;;;12.80;91.00;;;;;;5127982;28;19920;-77
2023/11/05 11:13:13;;;;;;;;;;;12.90;91.00;;;;;;5127953;28;19994;-77
2023/11/05 11:15:41;;;;;;;;;;;13.00;91.00;;;;;;5109633;28;19918;-77
2023/11/05 11:18:19;;;;;;;;;;;13.20;91.00;;;;;;5128101;28;20359;-77
2023/11/05 11:20:49;;;;;;;;;;;13.20;90.80;;;;;;5128896;27;20019;-78
2023/11/05 11:23:16;;;;;;;;;;;13.10;90.80;;;;;;5132131;27;20274;-78
2023/11/05 11:26:01;;;;;;;;;;;13.10;91.00;;;;;;5132180;27;19912;-78
2023/11/05 11:28:30;;;;;;;;;;;13.30;91.40;;;;;;5132089;27;19925;-77
2023/11/05 11:30:56;;;;;;;;;;;13.80;91.50;;;;;;5132712;27;19907;-75
2023/11/05 11:33:22;;;;;;;;;;;14.10;91.50;;;;;;5131736;27;19984;-75
2023/11/05 11:35:48;;;;;;;;;;;14.30;91.30;;;;;;5132290;27;20283;-74
2023/11/05 11:38:14;;;;;;;;;;;14.30;91.00;;;;;;5132265;27;19911;-75
2023/11/05 11:40:40;;;;;;;;;;;14.20;90.90;;;;;;5132118;27;20285;-75
2023/11/05 11:43:06;;;;;;;;;;;14.10;91.00;;;;;;5132304;27;19911;-75
2023/11/05 11:45:31;;;;;;;;;;;14.10;91.00;;;;;;5131854;27;20264;-75
2023/11/05 11:48:03;;;;;;;;;;;14.20;91.60;;;;;;5131346;27;19919;-76
2023/11/05 11:50:28;;;;;;;;;;;14.50;91.80;;;;;;5131371;27;19920;-76
2023/11/05 11:52:55;;;;;;;;;;;15.10;92.20;;;;;;5113156;27;19923;-76
2023/11/05 11:55:23;;;;;;;;;;;15.90;92.50;;;;;;5131452;27;19923;-75
2023/11/05 11:57:49;;;;;;;;;;;16.50;92.20;;;;;;5113115;27;20277;-76
2023/11/05 12:00:15;;;;;;;;;;;17.00;92.10;;;;;;5131592;27;19911;-76
2023/11/05 12:02:42;;;;;;;;;;;17.40;92.10;;;;;;5113156;27;19911;-76
2023/11/05 12:05:08;;;;;;;;;;;17.90;92.30;;;;;;5131186;27;19907;-76
2023/11/05 12:07:46;;;;;;;;;;;18.30;92.20;;;;;;5131558;27;20329;-76
2023/11/05 12:10:15;;;;;;;;;;;18.50;92.00;;;;;;5131653;27;19916;-75
2023/11/05 12:12:42;;;;;;;;;;;18.70;92.20;;;;;;5131153;27;19922;-76
2023/11/05 12:15:14;;;;;;;;;;;19.10;92.40;;;;;;5112701;27;19911;-76
2023/11/05 12:17:40;;;;;;;;;;;19.40;92.50;;;;;;5131164;27;19907;-76
2023/11/05 12:20:06;;;;;;;;;;;19.70;92.40;;;;;;5131182;27;19915;-76
2023/11/05 12:22:32;;;;;;;;;;;19.60;91.80;;;;;;5112456;27;19912;-76
2023/11/05 12:25:01;;;;;;;;;;;19.10;91.50;;;;;;5131352;27;19907;-76
2023/11/05 12:27:27;;;;;;;;;;;18.60;91.50;;;;;;5130920;27;19950;-76
2023/11/05 12:29:53;;;;;;;;;;;18.30;92.00;;;;;;5131037;27;20006;-75
2023/11/05 12:32:34;;;;;;;;;;;18.30;92.20;;;;;;5130498;27;19912;-76
2023/11/05 12:35:00;;;;;;;;;;;18.00;91.80;;;;;;5131306;27;19939;-76
2023/11/05 12:37:25;;;;;;;;;;;17.60;91.60;;;;;;5130426;27;20370;-75
2023/11/05 12:39:51;;;;;;;;;;;17.30;91.40;;;;;;5130826;27;20060;-75
2023/11/05 12:42:16;;;;;;;;;;;16.90;91.30;;;;;;5130692;27;19919;-75
2023/11/05 12:44:42;;;;;;;;;;;16.50;91.20;;;;;;5130829;27;20010;-75
2023/11/05 12:47:08;;;;;;;;;;;16.00;91.20;;;;;;5130708;27;19932;-75
2023/11/05 12:49:34;;;;;;;;;;;15.70;91.20;;;;;;5130470;27;19921;-76
2023/11/05 12:51:59;;;;;;;;;;;15.30;91.20;;;;;;5130617;27;20004;-76
2023/11/05 12:54:25;;;;;;;;;;;15.10;91.50;;;;;;5130504;27;20285;-75
2023/11/05 12:56:51;;;;;;;;;;;14.90;91.60;;;;;;5130123;27;19916;-75
2023/11/05 12:59:16;;;;;;;;;;;14.90;91.80;;;;;;5111855;27;20005;-75
2023/11/05 13:01:42;;;;;;;;;;;15.10;92.30;;;;;;5130193;27;19918;-76
2023/11/05 13:04:09;;;;;;;;;;;15.70;92.70;;;;;;5111537;27;19918;-75
2023/11/05 13:06:35;;;;;;;;;;;16.40;92.80;;;;;;5129947;27;19942;-76
2023/11/05 13:09:02;;;;;;;;;;;16.80;92.40;;;;;;5130236;27;19968;-75
2023/11/05 13:11:27;;;;;;;;;;;16.70;91.70;;;;;;5129795;27;19929;-75
2023/11/05 13:13:53;;;;;;;;;;;16.40;91.70;;;;;;5111746;27;19916;-75
2023/11/05 13:16:19;;;;;;;;;;;16.10;91.50;;;;;;5129782;27;19915;-75
2023/11/05 13:18:44;;;;;;;;;;;15.80;91.30;;;;;;5129499;27;19911;-75
2023/11/05 13:21:10;;;;;;;;;;;15.40;91.20;;;;;;5111251;27;19911;-75
2023/11/05 13:23:35;;;;;;;;;;;15.00;91.10;;;;;;5129659;27;20006;-75
2023/11/05 13:26:01;;;;;;;;;;;14.70;91.10;;;;;;5129463;27;19969;-75
2023/11/05 13:28:27;;;;;;;;;;;14.40;91.20;;;;;;5111108;27;20359;-75
2023/11/05 13:30:53;;;;;;;;;;;14.20;91.30;;;;;;5129153;27;19915;-76
2023/11/05 13:33:19;;;;;;;;;;;14.00;91.40;;;;;;5128745;27;19972;-75
2023/11/05 13:35:46;;;;;;;;;;;13.90;91.50;;;;;;5129239;27;20418;-76
2023/11/05 13:38:11;;;;;;;;;;;13.90;91.60;;;;;;5129572;27;19965;-76
2023/11/05 13:40:37;;;;;;;;;;;14.00;91.90;;;;;;5129847;27;20013;-76
2023/11/05 13:43:03;;;;;;;;;;;14.20;92.30;;;;;;5129216;27;19914;-76
2023/11/05 13:45:28;;;;;;;;;;;14.60;92.30;;;;;;5128988;27;19912;-76
2023/11/05 13:47:54;;;;;;;;;;;14.90;92.40;;;;;;5129268;27;19915;-76
2023/11/05 13:50:20;;;;;;;;;;;15.10;92.30;;;;;;5129713;27;20024;-76
2023/11/05 13:52:46;;;;;;;;;;;15.30;92.30;;;;;;5128762;27;20315;-76
2023/11/05 13:55:12;;;;;;;;;;;15.60;92.30;;;;;;5129027;27;19911;-76
2023/11/05 13:57:38;;;;;;;;;;;15.80;92.30;;;;;;5129453;27;19949;-76
2023/11/05 14:00:07;;;;;;;;;;;15.90;92.10;;;;;;5129486;27;20014;-76
2023/11/05 14:02:34;;;;;;;;;;;15.90;91.90;;;;;;5129419;27;20305;-76
2023/11/05 14:05:02;;;;;;;;;;;15.80;91.60;;;;;;5129513;27;20378;-76
2023/11/05 14:07:29;;;;;;;;;;;15.60;91.50;;;;;;5128749;27;20074;-76
2023/11/05 14:09:55;;;;;;;;;;;15.40;91.30;;;;;;5129137;27;19964;-76
2023/11/05 14:12:23;;;;;;;;;;;15.20;91.10;;;;;;5110811;27;20361;-76
2023/11/05 14:14:48;;;;;;;;;;;14.90;91.00;;;;;;5128783;27;19907;-76
2023/11/05 14:17:15;;;;;;;;;;;14.60;91.10;;;;;;5128952;27;19908;-76